Time;durP1;ratioP1;P1;durP2;ratioP2;P2;SDS_P1;SDS_P2;PMS_P1;PMS_P2;Temp;Humidity;BMP_temperature;BMP_pressure;BME280_temperature;BME280_humidity;BME280_pressure;Samples;Min_cycle;Max_cycle;Signal;HPM_P1;HPM_P2
2021/12/08 00:01:02;;;;;;;39.13;27.53;;;;;;;2.52;78.64;99887.03;5022170;28;20411;-69
2021/12/08 00:03:30;;;;;;;34.50;24.00;;;;;;;2.61;80.03;99882.97;5021665;28;20672;-69
2021/12/08 00:05:56;;;;;;;39.03;26.23;;;;;;;2.41;78.97;99860.13;5021866;28;20460;-69
2021/12/08 00:08:22;;;;;;;39.30;25.90;;;;;;;1.71;83.31;99869.19;5022373;28;20410;-68
2021/12/08 00:13:18;;;;;;;39.17;25.63;;;;;;;2.16;82.30;99848.25;5041289;28;20468;-68
2021/12/08 00:15:47;;;;;;;38.73;22.90;;;;;;;1.27;84.53;99844.69;5042272;28;20458;-69
2021/12/08 00:18:15;;;;;;;39.53;23.67;;;;;;;1.74;82.92;99833.31;5040930;28;20413;-70
2021/12/08 00:20:42;;;;;;;38.60;19.20;;;;;;;1.38;84.29;99815.91;5027409;28;20448;-70
2021/12/08 00:23:08;;;;;;;36.57;24.20;;;;;;;1.61;85.42;99803.78;5029497;28;20406;-71
2021/12/08 00:25:35;;;;;;;33.53;23.00;;;;;;;1.41;84.81;99773.22;5029479;28;20417;-68
2021/12/08 00:28:01;;;;;;;38.67;25.03;;;;;;;2.09;83.89;99764.94;5025760;28;20729;-69
2021/12/08 00:30:28;;;;;;;39.30;23.77;;;;;;;1.97;82.72;99782.59;5023465;28;20429;-67
2021/12/08 00:32:55;;;;;;;38.50;22.80;;;;;;;1.80;83.13;99800.06;5019701;28;20446;-69
2021/12/08 00:35:22;;;;;;;41.10;25.10;;;;;;;1.96;82.58;99792.00;5021168;28;20839;-68
2021/12/08 00:37:48;;;;;;;37.77;22.57;;;;;;;1.77;83.94;99769.16;5021096;28;20417;-68
2021/12/08 00:40:15;;;;;;;31.23;19.17;;;;;;;1.60;83.56;99781.50;5021436;28;20517;-68
2021/12/08 00:42:41;;;;;;;37.77;21.90;;;;;;;1.97;83.52;99798.00;5020931;28;20187;-68
2021/12/08 00:45:08;;;;;;;38.80;25.47;;;;;;;2.61;82.17;99786.06;5021740;28;20401;-69
2021/12/08 00:47:33;;;;;;;38.30;24.87;;;;;;;2.72;79.93;99770.03;5020920;28;20175;-70
2021/12/08 00:49:58;;;;;;;38.10;24.00;;;;;;;1.69;83.36;99781.75;5032606;28;20491;-69
2021/12/08 00:52:28;;;;;;;42.87;25.70;;;;;;;2.53;82.00;99780.72;5040580;28;20222;-69
2021/12/08 00:54:55;;;;;;;39.30;23.97;;;;;;;2.04;82.94;99778.50;5040555;28;20209;-68
2021/12/08 00:57:21;;;;;;;40.90;24.20;;;;;;;2.02;83.83;99786.16;5041076;28;20417;-70
2021/12/08 00:59:47;;;;;;;37.03;22.97;;;;;;;2.22;82.12;99793.56;5039700;28;20432;-70
2021/12/08 01:02:12;;;;;;;33.37;22.40;;;;;;;2.02;82.92;99791.31;5040276;28;20441;-68
2021/12/08 01:04:38;;;;;;;34.63;20.63;;;;;;;1.36;85.05;99797.88;5040876;28;20186;-68
2021/12/08 01:07:03;;;;;;;42.07;25.17;;;;;;;2.16;83.01;99800.25;5027477;28;20183;-69
2021/12/08 01:09:29;;;;;;;42.13;24.30;;;;;;;1.85;83.49;99809.69;5025684;28;20175;-68
2021/12/08 01:11:57;;;;;;;38.20;24.57;;;;;;;2.27;83.41;99789.41;5024399;28;20175;-69
2021/12/08 01:14:23;;;;;;;37.97;22.57;;;;;;;2.17;81.46;99811.44;5024172;28;20468;-69
2021/12/08 01:16:51;;;;;;;33.97;21.37;;;;;;;2.12;82.97;99813.00;5038111;28;20438;-69
2021/12/08 01:19:16;;;;;;;39.67;21.90;;;;;;;2.13;82.20;99779.63;5041866;28;20216;-69
2021/12/08 01:21:41;;;;;;;35.90;22.47;;;;;;;1.78;83.66;99766.63;5040546;28;20719;-67
2021/12/08 01:24:06;;;;;;;48.97;27.40;;;;;;;2.46;82.13;99749.63;5040600;28;20241;-68
2021/12/08 01:26:32;;;;;;;38.20;24.73;;;;;;;2.74;80.46;99746.06;5029261;28;20190;-68
2021/12/08 01:28:57;;;;;;;40.97;23.77;;;;;;;1.92;84.25;99761.00;5020349;28;20175;-68
2021/12/08 01:31:26;;;;;;;39.70;24.47;;;;;;;2.52;80.65;99742.94;5020451;28;20178;-69
2021/12/08 01:33:51;;;;;;;32.67;21.03;;;;;;;2.15;83.24;99748.81;5020786;28;20199;-68
2021/12/08 01:36:17;;;;;;;37.03;23.80;;;;;;;2.29;82.30;99720.91;5020293;28;20853;-70
2021/12/08 01:38:43;;;;;;;35.80;23.30;;;;;;;1.71;83.18;99725.31;5020540;28;20167;-68
2021/12/08 01:41:08;;;;;;;37.40;23.80;;;;;;;2.69;82.18;99724.50;5020432;28;20177;-69
2021/12/08 01:45:56;;;;;;;32.90;22.47;;;;;;;2.12;84.01;99711.00;5019603;28;20183;-69
2021/12/08 01:46:25;;;;;;;33.03;21.10;;;;;;;1.87;84.63;99701.78;5039703;28;20190;-68
2021/12/08 01:48:51;;;;;;;34.23;24.17;;;;;;;2.18;82.64;99694.91;5038768;28;20436;-68
2021/12/08 01:51:17;;;;;;;33.07;21.20;;;;;;;1.87;82.45;99706.03;5022162;28;20301;-67
2021/12/08 01:53:47;;;;;;;36.63;21.77;;;;;;;2.24;82.62;99699.34;5039047;28;20260;-68
2021/12/08 01:56:13;;;;;;;32.20;20.07;;;;;;;1.56;83.36;99666.66;5036022;28;20441;-68
2021/12/08 01:58:38;;;;;;;38.80;23.10;;;;;;;2.12;82.53;99681.88;5039554;28;20460;-68
2021/12/08 02:01:09;;;;;;;39.83;25.13;;;;;;;2.14;81.80;99669.94;5039021;28;20429;-68
2021/12/08 02:03:35;;;;;;;42.30;22.77;;;;;;;2.05;82.92;99667.13;5039227;28;20166;-69
2021/12/08 02:06:03;;;;;;;34.90;21.97;;;;;;;2.47;82.80;99659.63;5021645;28;20445;-68
2021/12/08 02:08:29;;;;;;;33.83;22.97;;;;;;;2.18;82.51;99644.34;5018974;28;20402;-69
2021/12/08 02:10:54;;;;;;;38.40;23.30;;;;;;;2.34;81.61;99639.56;5019459;28;20422;-68
2021/12/08 02:13:20;;;;;;;32.30;22.70;;;;;;;2.55;81.23;99646.97;5018410;28;20581;-68
2021/12/08 02:15:46;;;;;;;38.50;22.80;;;;;;;2.56;82.26;99645.25;5034324;28;20878;-68
2021/12/08 02:18:14;;;;;;;36.27;22.77;;;;;;;2.58;81.54;99631.59;5039150;28;20193;-70
2021/12/08 02:20:42;;;;;;;28.97;20.47;;;;;;;2.30;81.77;99630.94;5038840;28;20421;-68
2021/12/08 02:23:08;;;;;;;34.87;22.87;;;;;;;2.72;81.24;99621.66;5038448;28;20500;-68
2021/12/08 02:25:33;;;;;;;33.00;21.97;;;;;;;2.57;81.24;99622.16;5037452;28;20523;-68
2021/12/08 02:28:01;;;;;;;30.97;20.73;;;;;;;2.14;82.12;99619.38;5026457;28;20467;-68
2021/12/08 02:30:37;;;;;;;29.97;19.83;;;;;;;2.16;81.10;99619.41;5019527;28;20177;-68
2021/12/08 02:46:52;;;;;;;27.43;18.80;;;;;;;2.06;80.59;99614.84;5018966;28;20424;-69
2021/12/08 02:49:20;;;;;;;26.67;17.40;;;;;;;2.22;80.64;99574.97;5019645;28;20445;-69
2021/12/08 02:51:45;;;;;;;33.90;19.23;;;;;;;2.10;80.95;99584.16;5018850;28;20552;-69
2021/12/08 02:54:11;;;;;;;31.80;21.40;;;;;;;2.47;79.55;99561.88;5021040;28;20554;-69
2021/12/08 02:56:36;;;;;;;26.23;17.40;;;;;;;2.84;78.80;99582.44;5037827;28;20257;-68
2021/12/08 02:59:02;;;;;;;27.27;19.60;;;;;;;2.64;78.94;99576.84;5038422;28;20174;-69
2021/12/08 03:01:28;;;;;;;31.30;20.30;;;;;;;2.91;79.59;99545.72;5038518;28;20186;-68
2021/12/08 03:03:53;;;;;;;29.67;18.30;;;;;;;2.23;80.08;99561.31;5038296;28;20683;-68
2021/12/08 03:06:20;;;;;;;28.10;18.63;;;;;;;2.73;79.47;99551.31;5019487;28;20187;-68
2021/12/08 03:08:46;;;;;;;28.43;18.83;;;;;;;2.81;78.27;99551.47;5019655;28;20284;-68
2021/12/08 03:11:11;;;;;;;30.43;19.20;;;;;;;2.80;78.23;99565.19;5019720;28;20473;-68
2021/12/08 03:13:41;;;;;;;30.47;19.60;;;;;;;2.81;78.85;99549.75;5018672;28;20237;-68
2021/12/08 03:16:10;;;;;;;25.87;16.90;;;;;;;2.61;78.23;99567.38;5035011;28;20174;-67
2021/12/08 03:18:38;;;;;;;28.23;17.17;;;;;;;2.64;79.33;99567.44;5037476;28;20433;-68
2021/12/08 03:21:06;;;;;;;22.83;16.70;;;;;;;2.63;77.98;99554.53;5038492;28;20429;-68
2021/12/08 03:23:44;;;;;;;24.67;15.70;;;;;;;2.34;79.04;99563.31;5038445;28;20467;-68
2021/12/08 03:26:09;;;;;;;28.90;18.10;;;;;;;2.48;78.60;99560.19;5023439;28;20468;-68
2021/12/08 03:28:41;;;;;;;27.93;18.10;;;;;;;2.74;77.69;99540.19;5019286;28;20761;-68
2021/12/08 03:31:14;;;;;;;23.30;15.70;;;;;;;2.70;77.83;99549.53;5019528;28;20174;-71
2021/12/08 03:33:44;;;;;;;25.60;16.60;;;;;;;2.88;77.08;99537.03;5018783;28;20737;-67
2021/12/08 03:36:10;;;;;;;24.60;17.63;;;;;;;2.70;77.15;99536.66;5034057;28;20478;-68
2021/12/08 03:38:35;;;;;;;26.33;18.90;;;;;;;2.52;78.00;99557.72;5038225;28;20432;-68
2021/12/08 03:41:03;;;;;;;23.97;18.30;;;;;;;3.06;77.75;99564.88;5038360;28;20170;-68
2021/12/08 03:43:28;;;;;;;21.03;15.60;;;;;;;2.89;77.28;99552.50;5019633;28;20179;-68
2021/12/08 03:45:55;;;;;;;23.30;16.73;;;;;;;2.82;76.33;99579.81;5018284;28;20426;-68
2021/12/08 03:48:28;;;;;;;23.37;16.63;;;;;;;2.69;76.71;99580.38;5018402;28;20179;-68
2021/12/08 03:50:56;;;;;;;23.63;17.40;;;;;;;2.84;76.19;99569.56;5017439;28;20521;-68
2021/12/08 03:53:21;;;;;;;23.37;16.37;;;;;;;2.92;75.42;99573.16;5034070;28;20468;-68
2021/12/08 03:55:48;;;;;;;21.20;16.30;;;;;;;3.42;74.69;99567.31;5037896;28;20400;-68
2021/12/08 03:58:15;;;;;;;25.30;16.97;;;;;;;2.94;75.49;99566.34;5037938;28;20236;-68
2021/12/08 04:00:42;;;;;;;24.43;15.40;;;;;;;2.78;76.18;99587.47;5037370;28;20504;-68
2021/12/08 04:03:08;;;;;;;19.30;14.90;;;;;;;3.18;74.52;99571.16;5023844;28;20475;-68
2021/12/08 04:05:51;;;;;;;23.50;16.27;;;;;;;3.41;74.04;99570.75;5018156;28;20567;-68
2021/12/08 04:08:28;;;;;;;21.80;16.10;;;;;;;3.59;74.25;99561.66;5020952;28;20174;-69
2021/12/08 04:10:54;;;;;;;25.40;16.80;;;;;;;2.97;74.13;99571.56;5022043;28;20441;-67
2021/12/08 04:13:28;;;;;;;21.33;16.03;;;;;;;3.75;72.83;99570.50;5021555;28;20935;-69
2021/12/08 04:15:54;;;;;;;21.80;15.57;;;;;;;3.31;73.17;99573.97;5021306;28;20418;-68
2021/12/08 04:18:19;;;;;;;23.07;16.33;;;;;;;3.35;73.33;99573.19;5041830;28;20409;-68
2021/12/08 04:20:49;;;;;;;22.77;14.60;;;;;;;3.44;73.58;99583.69;5040651;28;20447;-68
2021/12/08 04:23:16;;;;;;;22.30;16.37;;;;;;;3.43;73.60;99605.13;5041237;28;20170;-68
2021/12/08 04:25:44;;;;;;;20.40;15.67;;;;;;;3.42;72.88;99589.66;5041776;28;20474;-68
2021/12/08 04:28:12;;;;;;;20.33;14.20;;;;;;;3.02;74.49;99574.25;5028120;28;20440;-68
2021/12/08 04:30:42;;;;;;;18.30;14.33;;;;;;;3.23;74.15;99580.69;5055224;28;20813;-68
2021/12/08 04:33:08;;;;;;;22.30;16.80;;;;;;;3.33;76.13;99568.03;5043464;28;20529;-68
2021/12/08 04:35:34;;;;;;;24.90;15.93;;;;;;;3.14;75.68;99563.31;5022025;28;20441;-68
2021/12/08 04:38:04;;;;;;;22.67;16.73;;;;;;;2.86;77.96;99579.06;5021493;28;20396;-68
2021/12/08 04:40:40;;;;;;;20.90;16.60;;;;;;;2.68;78.59;99568.38;5021234;28;20430;-68
2021/12/08 04:43:21;;;;;;;20.73;15.10;;;;;;;2.68;79.49;99556.38;5022394;28;20798;-67
2021/12/08 04:46:17;;;;;;;22.70;16.93;;;;;;;3.02;79.49;99569.09;5033063;28;20469;-68
2021/12/08 05:02:32;;;;;;;20.97;15.33;;;;;;;1.83;83.28;99545.78;5020541;28;20453;-68
2021/12/08 05:08:12;;;;;;;22.80;14.17;;;;;;;1.54;84.48;99551.00;5031010;28;20850;-68
2021/12/08 05:10:25;;;;;;;26.07;18.63;;;;;;;2.16;84.03;99568.00;5035580;28;20858;-67
2021/12/08 05:12:51;;;;;;;24.50;17.77;;;;;;;2.68;84.68;99563.22;5025665;28;20433;-67
2021/12/08 05:15:22;;;;;;;19.20;14.90;;;;;;;1.80;84.54;99558.50;5029111;28;20689;-67
2021/12/08 05:17:56;;;;;;;24.93;18.17;;;;;;;1.94;85.28;99557.19;5033723;28;20411;-68
2021/12/08 05:20:38;;;;;;;28.90;18.20;;;;;;;2.30;84.26;99563.19;5029630;28;20693;-67
2021/12/08 05:23:08;;;;;;;23.60;18.73;;;;;;;2.34;84.16;99576.16;5038645;28;20544;-68
2021/12/08 05:25:36;;;;;;;26.73;18.70;;;;;;;1.87;84.55;99557.88;5058927;28;20448;-67
2021/12/08 05:28:05;;;;;;;27.90;19.60;;;;;;;1.88;84.47;99556.16;5032985;28;20444;-67
2021/12/08 05:30:36;;;;;;;30.07;20.13;;;;;;;2.41;84.11;99572.03;5037749;28;20460;-68
2021/12/08 05:33:02;;;;;;;25.37;18.07;;;;;;;2.25;84.15;99583.66;5039416;28;20474;-68
2021/12/08 05:35:28;;;;;;;23.33;17.13;;;;;;;1.57;84.06;99579.34;5019433;28;20463;-67
2021/12/08 05:37:54;;;;;;;27.07;18.80;;;;;;;2.06;84.53;99573.72;5034694;28;20483;-68
2021/12/08 05:40:36;;;;;;;26.67;19.33;;;;;;;1.98;84.44;99566.69;5043645;28;20797;-68
2021/12/08 05:43:04;;;;;;;23.73;19.07;;;;;;;2.43;84.46;99572.94;5058552;28;20174;-68
2021/12/08 05:45:30;;;;;;;25.30;19.23;;;;;;;2.14;84.44;99585.09;5039573;28;20478;-67
2021/12/08 05:47:56;;;;;;;28.73;20.00;;;;;;;2.12;84.83;99571.31;5039505;28;20425;-68
2021/12/08 05:50:28;;;;;;;25.93;17.90;;;;;;;1.40;86.30;99576.31;5040157;28;20529;-68
2021/12/08 05:52:54;;;;;;;23.97;19.30;;;;;;;1.80;86.04;99587.66;5039146;28;20476;-68
2021/12/08 05:55:20;;;;;;;26.70;18.87;;;;;;;1.63;86.88;99579.50;5040927;28;20432;-68
2021/12/08 05:57:45;;;;;;;26.50;17.63;;;;;;;1.81;86.17;99585.97;5059663;28;20413;-67
2021/12/08 06:00:34;;;;;;;28.90;20.40;;;;;;;2.30;85.78;99589.78;5059226;28;20419;-68
2021/12/08 06:03:00;;;;;;;28.77;20.07;;;;;;;1.90;86.92;99596.47;5058986;28;20265;-68
2021/12/08 06:05:28;;;;;;;28.07;19.97;;;;;;;1.85;84.67;99601.53;5059042;28;20420;-68
2021/12/08 06:07:54;;;;;;;27.40;20.83;;;;;;;2.14;84.75;99585.09;5033948;28;20527;-67
2021/12/08 06:10:27;;;;;;;27.00;17.67;;;;;;;1.56;86.06;99593.03;5036612;28;20421;-68
2021/12/08 06:12:53;;;;;;;29.20;19.63;;;;;;;2.04;85.19;99586.53;5038525;28;20507;-68
2021/12/08 06:15:18;;;;;;;30.83;20.00;;;;;;;1.98;86.08;99589.84;5039122;28;20503;-68
2021/12/08 06:17:44;;;;;;;30.00;22.30;;;;;;;1.72;85.61;99585.72;5039171;28;20230;-67
2021/12/08 06:20:11;;;;;;;30.93;21.80;;;;;;;1.65;86.92;99590.69;5039309;28;20176;-68
2021/12/08 06:22:38;;;;;;;33.30;22.40;;;;;;;2.10;85.36;99591.00;5031320;28;20526;-67
2021/12/08 06:25:04;;;;;;;35.77;21.80;;;;;;;1.86;86.28;99592.09;5031131;28;20516;-68
2021/12/08 06:27:29;;;;;;;31.10;21.53;;;;;;;1.37;87.79;99583.03;5018795;28;20500;-67
2021/12/08 06:29:54;;;;;;;31.93;22.47;;;;;;;1.95;86.51;99607.75;5020187;28;20234;-67
2021/12/08 06:32:20;;;;;;;34.37;23.50;;;;;;;2.12;85.59;99602.19;5027795;28;20183;-68
2021/12/08 06:34:50;;;;;;;33.10;21.67;;;;;;;1.86;85.49;99604.94;5018603;28;20226;-67
2021/12/08 06:37:21;;;;;;;32.53;21.67;;;;;;;1.64;86.41;99611.22;5018029;28;20217;-68
2021/12/08 06:40:12;;;;;;;33.30;21.83;;;;;;;1.86;85.88;99599.81;5018857;28;20421;-66
2021/12/08 06:42:39;;;;;;;30.57;21.20;;;;;;;1.87;86.77;99604.13;5025155;28;20445;-67
2021/12/08 06:45:08;;;;;;;30.03;22.57;;;;;;;2.30;84.67;99606.91;5024669;28;20678;-67
2021/12/08 06:47:34;;;;;;;35.17;22.00;;;;;;;1.99;85.34;99612.16;5019796;28;20412;-67
2021/12/08 06:50:04;;;;;;;37.47;23.07;;;;;;;1.99;84.87;99614.72;5036608;28;20407;-67
2021/12/08 06:52:33;;;;;;;35.40;22.53;;;;;;;2.02;85.30;99621.66;5018235;28;20511;-68
2021/12/08 06:55:09;;;;;;;37.10;24.10;;;;;;;1.82;86.23;99618.53;5021066;28;20480;-67
2021/12/08 06:57:39;;;;;;;32.90;24.07;;;;;;;2.13;85.26;99625.34;5034877;28;20427;-68
2021/12/08 07:00:47;;;;;;;27.43;18.60;;;;;;;1.47;85.00;99624.44;5018389;28;20476;-68
2021/12/08 07:08:24;;;;;;;31.30;21.10;;;;;;;1.93;86.20;99627.41;5036090;28;20512;-67
2021/12/08 07:10:53;;;;;;;32.90;22.20;;;;;;;2.19;86.63;99624.63;5037874;28;20421;-67
2021/12/08 07:13:23;;;;;;;32.90;23.27;;;;;;;2.27;85.49;99617.13;5018258;28;20729;-67
2021/12/08 07:15:55;;;;;;;29.97;21.60;;;;;;;2.09;84.99;99635.53;5017653;28;20501;-68
2021/12/08 07:18:25;;;;;;;32.93;22.30;;;;;;;1.74;86.41;99615.75;5028035;28;20429;-67
2021/12/08 07:20:55;;;;;;;34.20;22.77;;;;;;;2.38;84.64;99600.25;5034662;28;20691;-68
2021/12/08 07:23:28;;;;;;;32.30;22.87;;;;;;;2.04;84.44;99619.09;5018527;28;20400;-68
2021/12/08 07:25:57;;;;;;;34.50;23.50;;;;;;;2.05;84.80;99611.44;5017481;28;20429;-68
2021/12/08 07:28:25;;;;;;;29.30;22.00;;;;;;;2.24;84.32;99630.75;5018090;28;20410;-68
2021/12/08 07:30:54;;;;;;;32.00;22.03;;;;;;;2.67;83.40;99620.66;5019169;28;20509;-68
2021/12/08 07:33:20;;;;;;;31.70;21.93;;;;;;;2.29;84.75;99616.31;5037876;28;20447;-65
2021/12/08 07:35:54;;;;;;;29.70;21.73;;;;;;;1.80;85.39;99620.19;5032620;28;20448;-63
2021/12/08 07:38:22;;;;;;;34.50;23.20;;;;;;;1.40;87.05;99626.81;5036533;28;20273;-69
2021/12/08 07:41:08;;;;;;;34.30;23.00;;;;;;;1.56;87.32;99633.25;5041802;28;20421;-66
2021/12/08 07:43:36;;;;;;;31.60;22.17;;;;;;;1.75;86.75;99614.06;5044320;28;20825;-64
2021/12/08 07:46:08;;;;;;;34.90;23.70;;;;;;;1.63;86.24;99628.31;5057758;28;20439;-63
2021/12/08 07:48:39;;;;;;;32.80;21.70;;;;;;;1.70;86.24;99624.22;5041797;28;20396;-65
2021/12/08 07:51:09;;;;;;;34.87;23.00;;;;;;;1.78;85.45;99621.88;5041461;28;20461;-64
2021/12/08 07:53:35;;;;;;;31.73;22.23;;;;;;;1.87;85.85;99616.97;5036833;28;20496;-64
2021/12/08 07:56:04;;;;;;;32.20;21.10;;;;;;;1.56;87.58;99618.72;5039290;28;20464;-64
2021/12/08 07:58:31;;;;;;;32.00;24.87;;;;;;;2.13;85.05;99627.06;5028139;28;20292;-64
2021/12/08 08:01:06;;;;;;;35.53;23.77;;;;;;;2.22;85.42;99623.84;5023002;28;20827;-66
2021/12/08 08:03:32;;;;;;;32.20;23.47;;;;;;;2.04;84.90;99639.69;5037886;28;20435;-66
2021/12/08 08:05:59;;;;;;;30.50;21.83;;;;;;;1.95;85.49;99640.28;5053955;28;20425;-66
2021/12/08 08:08:30;;;;;;;31.33;22.50;;;;;;;1.82;86.17;99639.09;5052139;28;20515;-67
2021/12/08 08:11:07;;;;;;;33.03;22.03;;;;;;;1.81;85.35;99634.78;5059029;28;20502;-66
2021/12/08 08:13:33;;;;;;;27.50;21.50;;;;;;;1.82;86.16;99662.22;5047831;28;20476;-67
2021/12/08 08:16:05;;;;;;;28.40;22.10;;;;;;;2.05;85.93;99654.28;5041204;28;20431;-66
2021/12/08 08:18:33;;;;;;;29.60;19.73;;;;;;;2.00;85.25;99641.28;5056902;28;20182;-65
2021/12/08 08:21:01;;;;;;;23.40;18.87;;;;;;;1.77;85.90;99644.13;5046195;28;20421;-66
2021/12/08 08:23:28;;;;;;;29.77;20.20;;;;;;;1.95;85.11;99641.19;5041063;28;20447;-65
2021/12/08 08:25:55;;;;;;;29.93;21.27;;;;;;;1.91;85.87;99644.50;5041098;28;20403;-65
2021/12/08 08:28:21;;;;;;;30.93;22.90;;;;;;;2.33;84.67;99653.28;5041322;28;20470;-65
2021/12/08 08:31:02;;;;;;;34.80;21.53;;;;;;;2.29;84.77;99660.03;5041117;28;20413;-65
2021/12/08 08:33:29;;;;;;;28.70;21.27;;;;;;;2.16;84.19;99655.41;5040861;28;20884;-65
2021/12/08 08:35:56;;;;;;;26.87;19.80;;;;;;;2.16;84.88;99660.56;5049627;28;20516;-65
2021/12/08 08:38:27;;;;;;;30.17;22.30;;;;;;;2.09;84.47;99662.09;5054513;28;20833;-67
2021/12/08 08:41:09;;;;;;;32.70;22.70;;;;;;;2.26;85.14;99669.38;5041352;28;20447;-65
2021/12/08 08:43:35;;;;;;;27.43;22.10;;;;;;;2.60;83.88;99671.09;5040456;28;20428;-64
2021/12/08 08:46:10;;;;;;;29.20;21.73;;;;;;;2.51;82.75;99676.88;5029562;28;20422;-64
2021/12/08 08:48:40;;;;;;;30.20;21.17;;;;;;;2.43;83.92;99680.97;5028839;28;20463;-64
2021/12/08 08:51:11;;;;;;;30.73;22.00;;;;;;;2.29;84.00;99688.34;5030963;28;20608;-64
2021/12/08 08:53:39;;;;;;;27.87;20.77;;;;;;;2.53;82.88;99676.94;5024268;28;20469;-65
2021/12/08 08:56:09;;;;;;;29.87;24.07;;;;;;;2.76;82.14;99674.03;5036470;28;20687;-65
2021/12/08 08:58:37;;;;;;;27.70;21.50;;;;;;;2.63;82.55;99673.75;5032983;28;20443;-66
2021/12/08 09:01:23;;;;;;;24.23;19.67;;;;;;;2.28;83.79;99670.28;5040537;28;20411;-64
2021/12/08 09:03:54;;;;;;;41.23;22.73;;;;;;;2.31;83.84;99681.53;5023801;28;20439;-65
2021/12/08 09:06:23;;;;;;;29.03;21.87;;;;;;;2.43;84.36;99664.69;5041513;28;20433;-67
2021/12/08 09:08:49;;;;;;;29.10;21.87;;;;;;;2.43;83.56;99674.97;5038236;28;20454;-64
2021/12/08 09:11:21;;;;;;;27.33;20.17;;;;;;;2.49;82.60;99669.94;5032701;28;20480;-66
2021/12/08 09:14:05;;;;;;;26.03;20.30;;;;;;;2.24;85.35;99676.19;5025515;28;20305;-63
2021/12/08 09:16:36;;;;;;;26.77;21.50;;;;;;;2.41;84.42;99687.78;5023849;28;20435;-64
2021/12/08 09:19:10;;;;;;;27.00;20.27;;;;;;;3.01;81.69;99680.66;5027426;28;20441;-64
2021/12/08 09:21:38;;;;;;;31.00;22.50;;;;;;;2.93;82.54;99685.59;5019328;28;20432;-64
2021/12/08 09:24:21;;;;;;;30.13;22.50;;;;;;;2.70;82.69;99688.50;5020676;28;20815;-65
2021/12/08 09:26:52;;;;;;;27.60;21.17;;;;;;;2.84;82.10;99694.00;5021490;28;20429;-64
2021/12/08 09:29:22;;;;;;;31.50;23.00;;;;;;;2.61;83.34;99698.59;5023923;28;20773;-65
2021/12/08 09:32:19;;;;;;;28.27;20.67;;;;;;;2.66;82.90;99699.53;5023773;28;20441;-65
2021/12/08 09:34:56;;;;;;;27.40;21.13;;;;;;;3.09;81.62;99704.00;5035927;28;20526;-64
2021/12/08 09:37:24;;;;;;;30.83;20.80;;;;;;;3.12;81.39;99701.50;5063078;28;20424;-64
2021/12/08 09:40:33;;;;;;;25.50;20.23;;;;;;;2.72;82.58;99697.97;5064334;28;20431;-63
2021/12/08 09:43:02;;;;;;;31.70;21.90;;;;;;;3.03;81.04;99704.72;5061821;28;20415;-64
2021/12/08 09:45:32;;;;;;;29.43;21.40;;;;;;;2.69;83.33;99694.50;5059945;28;20424;-64
2021/12/08 09:48:02;;;;;;;29.30;20.60;;;;;;;2.67;82.94;99693.56;5038170;28;20444;-65
2021/12/08 09:50:27;;;;;;;28.70;21.43;;;;;;;2.47;83.56;99687.06;5039332;28;20811;-65
2021/12/08 09:52:53;;;;;;;27.33;20.03;;;;;;;2.11;84.90;99691.31;5049820;28;20478;-65
2021/12/08 09:55:19;;;;;;;31.27;22.00;;;;;;;2.95;82.86;99688.22;5059493;28;20228;-65
2021/12/08 09:57:46;;;;;;;27.33;19.93;;;;;;;3.06;81.76;99686.78;5059607;28;20439;-64
2021/12/08 10:00:26;;;;;;;29.37;21.47;;;;;;;3.17;81.20;99687.88;5058483;28;20173;-66
2021/12/08 10:02:57;;;;;;;28.80;20.00;;;;;;;2.86;82.92;99696.59;5059110;28;20416;-66
2021/12/08 10:05:25;;;;;;;29.30;20.27;;;;;;;2.92;81.46;99685.56;5058961;28;20435;-65
2021/12/08 10:07:50;;;;;;;25.43;19.63;;;;;;;3.18;80.50;99671.59;5058262;28;20420;-66
2021/12/08 10:10:16;;;;;;;22.67;17.90;;;;;;;2.64;83.11;99693.50;5059115;28;20465;-65
2021/12/08 10:12:42;;;;;;;24.83;19.47;;;;;;;3.00;82.27;99699.50;5058784;28;20189;-65
2021/12/08 10:15:11;;;;;;;23.80;19.23;;;;;;;3.02;81.66;99695.25;5058775;28;20216;-65
2021/12/08 10:17:37;;;;;;;28.80;19.47;;;;;;;2.77;82.26;99696.38;5058064;28;20466;-66
2021/12/08 10:20:14;;;;;;;24.67;19.00;;;;;;;2.92;82.00;99686.44;5058191;28;20428;-66
2021/12/08 10:22:41;;;;;;;25.10;18.70;;;;;;;3.07;81.88;99677.34;5058619;28;20169;-65
2021/12/08 10:25:12;;;;;;;27.07;19.70;;;;;;;3.14;81.47;99685.25;5058610;28;20474;-67
2021/12/08 10:28:08;;;;;;;24.13;19.33;;;;;;;3.16;80.82;99678.41;5058706;28;20440;-66
2021/12/08 10:30:45;;;;;;;28.17;19.17;;;;;;;2.83;82.37;99683.66;5023898;28;20416;-66
2021/12/08 10:33:47;;;;;;;25.30;19.67;;;;;;;3.34;80.99;99682.22;5049209;28;20439;-67
2021/12/08 10:39:01;;;;;;;24.43;18.37;;;;;;;2.94;81.44;99692.50;5058569;28;20683;-67
2021/12/08 10:41:26;;;;;;;25.00;19.63;;;;;;;3.15;82.46;99691.25;5058234;28;20408;-67
2021/12/08 10:43:59;;;;;;;27.03;18.97;;;;;;;3.30;80.43;99691.63;5057375;28;20470;-66
2021/12/08 10:46:34;;;;;;;22.90;18.73;;;;;;;2.75;82.60;99680.00;5046962;28;20418;-66
2021/12/08 10:54:25;;;;;;;25.30;18.37;;;;;;;3.07;82.60;99677.34;5021702;28;20421;-66
2021/12/08 10:54:45;;;;;;;25.10;18.50;;;;;;;3.45;80.54;99672.16;5021928;28;20473;-67
2021/12/08 10:57:24;;;;;;;24.30;18.70;;;;;;;3.28;81.43;99684.69;5020971;28;20812;-66
2021/12/08 10:59:57;;;;;;;24.40;17.30;;;;;;;3.36;79.92;99683.16;5020907;28;20430;-66
2021/12/08 11:02:45;;;;;;;23.67;18.27;;;;;;;3.45;79.51;99672.16;5017960;28;20834;-66
2021/12/08 11:05:25;;;;;;;24.17;17.70;;;;;;;3.33;80.71;99683.94;5018421;28;20418;-67
2021/12/08 11:08:04;;;;;;;24.67;18.43;;;;;;;3.78;79.20;99690.03;5018233;28;20429;-65
2021/12/08 11:10:32;;;;;;;24.73;18.67;;;;;;;3.42;80.21;99674.66;5018565;28;20396;-66
2021/12/08 11:12:59;;;;;;;24.57;19.30;;;;;;;3.54;80.41;99680.97;5017982;28;20438;-66
2021/12/08 11:15:27;;;;;;;24.50;19.13;;;;;;;3.49;80.34;99673.94;5018234;28;20851;-65
2021/12/08 11:18:17;;;;;;;24.07;18.20;;;;;;;3.39;80.37;99680.63;5017737;28;20430;-65
2021/12/08 11:21:05;;;;;;;22.87;17.90;;;;;;;3.64;79.02;99674.28;5024876;28;20517;-65
2021/12/08 11:23:40;;;;;;;23.27;18.10;;;;;;;3.59;79.77;99686.19;5017882;28;20785;-65
2021/12/08 11:26:35;;;;;;;26.87;18.97;;;;;;;3.79;79.63;99672.84;5018083;28;20436;-65
2021/12/08 11:29:05;;;;;;;25.20;18.83;;;;;;;3.75;79.01;99671.03;5018459;28;20408;-64
2021/12/08 11:31:37;;;;;;;21.97;18.23;;;;;;;3.73;79.69;99677.88;5018007;28;20505;-64
2021/12/08 11:34:13;;;;;;;23.47;17.97;;;;;;;3.81;79.53;99673.75;5018182;28;20461;-63
2021/12/08 11:36:39;;;;;;;24.10;17.90;;;;;;;3.63;78.77;99685.44;5018167;28;20421;-63
2021/12/08 11:39:17;;;;;;;29.20;19.70;;;;;;;3.80;79.37;99690.94;5018119;28;20422;-64
2021/12/08 11:41:45;;;;;;;22.47;17.67;;;;;;;3.76;79.50;99693.41;5017537;28;20369;-65
2021/12/08 11:44:20;;;;;;;25.17;17.43;;;;;;;3.28;81.56;99690.69;5017944;28;20827;-65
2021/12/08 11:46:58;;;;;;;24.23;18.17;;;;;;;3.61;79.41;99694.81;5017842;28;20432;-64
2021/12/08 11:49:24;;;;;;;26.87;18.10;;;;;;;3.53;80.86;99699.84;5018062;28;20788;-65
2021/12/08 11:51:53;;;;;;;22.13;17.53;;;;;;;3.94;79.09;99680.88;5017780;28;20462;-66
2021/12/08 11:54:33;;;;;;;26.80;18.10;;;;;;;3.58;79.79;99684.47;5017825;28;20531;-67
2021/12/08 11:57:09;;;;;;;26.30;19.03;;;;;;;3.80;79.14;99690.94;5017664;28;21144;-68
2021/12/08 11:59:44;;;;;;;22.80;17.30;;;;;;;3.43;80.91;99704.75;5017863;28;20410;-67
2021/12/08 12:02:10;;;;;;;26.27;18.23;;;;;;;3.80;79.37;99698.66;5017353;28;20417;-66
2021/12/08 12:04:35;;;;;;;25.90;18.80;;;;;;;3.86;79.53;99690.19;5018232;28;20733;-66
2021/12/08 12:07:01;;;;;;;24.03;18.60;;;;;;;3.69;79.63;99695.00;5017959;28;20233;-66
2021/12/08 12:09:26;;;;;;;24.30;17.37;;;;;;;3.95;78.44;99687.78;5017063;28;20171;-65
2021/12/08 12:11:53;;;;;;;22.87;18.40;;;;;;;3.63;79.81;99688.00;5017441;28;20175;-67
2021/12/08 12:14:20;;;;;;;22.77;19.00;;;;;;;3.99;78.72;99687.00;5017630;28;20199;-67
2021/12/08 12:16:45;;;;;;;21.90;17.80;;;;;;;3.94;79.16;99682.56;5017695;28;20455;-66
2021/12/08 12:19:15;;;;;;;18.17;15.33;;;;;;;3.43;79.98;99697.88;5024134;28;20420;-66
2021/12/08 12:21:52;;;;;;;22.00;17.47;;;;;;;3.78;79.00;99702.91;5036689;28;20536;-66